sensor_id;sensor_type;location;lat;lon;timestamp;P1;durP1;ratioP1;P2;durP2;ratioP2
38513;SDS011;24282;48.400;10.808;2023-06-04T00:01:40;3.22;;;1.80;;
38513;SDS011;24282;48.400;10.808;2023-06-04T00:04:06;2.20;;;1.70;;
38513;SDS011;24282;48.400;10.808;2023-06-04T00:06:31;2.25;;;1.65;;
38513;SDS011;24282;48.400;10.808;2023-06-04T00:08:57;3.88;;;1.88;;
38513;SDS011;24282;48.400;10.808;2023-06-04T00:11:23;2.20;;;1.48;;
38513;SDS011;24282;48.400;10.808;2023-06-04T00:13:48;2.92;;;1.60;;
38513;SDS011;24282;48.400;10.808;2023-06-04T00:16:14;3.03;;;1.98;;
38513;SDS011;24282;48.400;10.808;2023-06-04T00:18:40;2.38;;;1.50;;
38513;SDS011;24282;48.400;10.808;2023-06-04T00:21:06;2.95;;;1.52;;
38513;SDS011;24282;48.400;10.808;2023-06-04T00:23:31;2.00;;;1.40;;
38513;SDS011;24282;48.400;10.808;2023-06-04T00:25:57;2.85;;;1.83;;
38513;SDS011;24282;48.400;10.808;2023-06-04T00:28:22;2.35;;;1.60;;
38513;SDS011;24282;48.400;10.808;2023-06-04T00:30:48;3.92;;;1.90;;
38513;SDS011;24282;48.400;10.808;2023-06-04T00:33:14;1.95;;;1.30;;
38513;SDS011;24282;48.400;10.808;2023-06-04T00:35:40;2.78;;;1.92;;
38513;SDS011;24282;48.400;10.808;2023-06-04T00:38:05;2.75;;;1.60;;
38513;SDS011;24282;48.400;10.808;2023-06-04T00:40:31;3.67;;;1.88;;
38513;SDS011;24282;48.400;10.808;2023-06-04T00:42:57;2.03;;;1.40;;
38513;SDS011;24282;48.400;10.808;2023-06-04T00:45:22;2.28;;;1.55;;
38513;SDS011;24282;48.400;10.808;2023-06-04T00:47:51;2.70;;;1.45;;
38513;SDS011;24282;48.400;10.808;2023-06-04T00:50:17;3.90;;;1.63;;
38513;SDS011;24282;48.400;10.808;2023-06-04T00:52:46;2.22;;;1.60;;
38513;SDS011;24282;48.400;10.808;2023-06-04T00:55:12;6.28;;;2.00;;
38513;SDS011;24282;48.400;10.808;2023-06-04T00:57:38;2.45;;;1.58;;
38513;SDS011;24282;48.400;10.808;2023-06-04T01:00:04;2.45;;;1.48;;
38513;SDS011;24282;48.400;10.808;2023-06-04T01:02:31;1.83;;;1.25;;
38513;SDS011;24282;48.400;10.808;2023-06-04T01:05:03;1.67;;;1.33;;
38513;SDS011;24282;48.400;10.808;2023-06-04T01:07:36;2.65;;;1.58;;
38513;SDS011;24282;48.400;10.808;2023-06-04T01:10:05;2.35;;;1.60;;
38513;SDS011;24282;48.400;10.808;2023-06-04T01:12:31;2.00;;;1.45;;
38513;SDS011;24282;48.400;10.808;2023-06-04T01:14:57;3.28;;;1.45;;
38513;SDS011;24282;48.400;10.808;2023-06-04T01:20:05;1.92;;;1.38;;
38513;SDS011;24282;48.400;10.808;2023-06-04T01:27:57;2.33;;;1.50;;
38513;SDS011;24282;48.400;10.808;2023-06-04T01:30:29;2.17;;;1.35;;
38513;SDS011;24282;48.400;10.808;2023-06-04T01:32:57;3.78;;;1.65;;
38513;SDS011;24282;48.400;10.808;2023-06-04T01:35:27;4.68;;;1.58;;
38513;SDS011;24282;48.400;10.808;2023-06-04T01:37:53;2.33;;;1.70;;
38513;SDS011;24282;48.400;10.808;2023-06-04T01:40:20;3.22;;;1.63;;
38513;SDS011;24282;48.400;10.808;2023-06-04T01:42:46;4.20;;;1.98;;
38513;SDS011;24282;48.400;10.808;2023-06-04T01:45:12;2.33;;;1.45;;
38513;SDS011;24282;48.400;10.808;2023-06-04T01:47:38;3.28;;;1.83;;
38513;SDS011;24282;48.400;10.808;2023-06-04T01:50:04;3.47;;;1.70;;
38513;SDS011;24282;48.400;10.808;2023-06-04T01:52:37;2.80;;;1.83;;
38513;SDS011;24282;48.400;10.808;2023-06-04T01:55:07;2.45;;;1.52;;
38513;SDS011;24282;48.400;10.808;2023-06-04T01:57:37;1.67;;;1.40;;
38513;SDS011;24282;48.400;10.808;2023-06-04T02:00:06;1.92;;;1.50;;
38513;SDS011;24282;48.400;10.808;2023-06-04T02:02:39;2.28;;;1.67;;
38513;SDS011;24282;48.400;10.808;2023-06-04T02:05:07;1.70;;;1.30;;
38513;SDS011;24282;48.400;10.808;2023-06-04T02:07:34;2.13;;;1.47;;
38513;SDS011;24282;48.400;10.808;2023-06-04T02:10:00;2.35;;;1.40;;
38513;SDS011;24282;48.400;10.808;2023-06-04T02:12:26;1.92;;;1.48;;
38513;SDS011;24282;48.400;10.808;2023-06-04T02:14:52;3.80;;;1.47;;
38513;SDS011;24282;48.400;10.808;2023-06-04T02:17:21;2.03;;;1.53;;
38513;SDS011;24282;48.400;10.808;2023-06-04T02:19:46;2.27;;;1.50;;
38513;SDS011;24282;48.400;10.808;2023-06-04T02:22:16;2.50;;;1.53;;
38513;SDS011;24282;48.400;10.808;2023-06-04T02:24:42;1.57;;;1.30;;
38513;SDS011;24282;48.400;10.808;2023-06-04T02:27:09;1.73;;;1.37;;
38513;SDS011;24282;48.400;10.808;2023-06-04T02:29:35;3.17;;;1.67;;
38513;SDS011;24282;48.400;10.808;2023-06-04T02:32:02;2.33;;;1.60;;
38513;SDS011;24282;48.400;10.808;2023-06-04T02:34:28;2.13;;;1.50;;
38513;SDS011;24282;48.400;10.808;2023-06-04T02:36:55;2.00;;;1.30;;
38513;SDS011;24282;48.400;10.808;2023-06-04T02:39:21;2.17;;;1.40;;
38513;SDS011;24282;48.400;10.808;2023-06-04T02:41:47;1.97;;;1.47;;
38513;SDS011;24282;48.400;10.808;2023-06-04T02:44:13;2.23;;;1.73;;
38513;SDS011;24282;48.400;10.808;2023-06-04T02:46:38;2.67;;;1.50;;
38513;SDS011;24282;48.400;10.808;2023-06-04T02:49:04;2.50;;;1.57;;
38513;SDS011;24282;48.400;10.808;2023-06-04T02:51:30;2.17;;;1.23;;
38513;SDS011;24282;48.400;10.808;2023-06-04T02:53:57;2.47;;;1.70;;
38513;SDS011;24282;48.400;10.808;2023-06-04T02:56:23;2.20;;;1.63;;
38513;SDS011;24282;48.400;10.808;2023-06-04T02:58:53;1.63;;;1.20;;
38513;SDS011;24282;48.400;10.808;2023-06-04T03:01:21;2.10;;;1.40;;
38513;SDS011;24282;48.400;10.808;2023-06-04T03:03:48;3.83;;;1.50;;
38513;SDS011;24282;48.400;10.808;2023-06-04T03:06:15;2.20;;;1.60;;
38513;SDS011;24282;48.400;10.808;2023-06-04T03:08:41;2.57;;;1.47;;
38513;SDS011;24282;48.400;10.808;2023-06-04T03:11:07;2.33;;;1.50;;
38513;SDS011;24282;48.400;10.808;2023-06-04T03:13:34;2.43;;;1.53;;
38513;SDS011;24282;48.400;10.808;2023-06-04T03:16:01;2.53;;;1.40;;
38513;SDS011;24282;48.400;10.808;2023-06-04T03:18:28;2.07;;;1.60;;
38513;SDS011;24282;48.400;10.808;2023-06-04T03:20:54;2.17;;;1.63;;
38513;SDS011;24282;48.400;10.808;2023-06-04T03:23:20;2.00;;;1.30;;
38513;SDS011;24282;48.400;10.808;2023-06-04T03:25:46;4.37;;;1.73;;
38513;SDS011;24282;48.400;10.808;2023-06-04T03:28:12;2.20;;;1.57;;
38513;SDS011;24282;48.400;10.808;2023-06-04T03:30:41;1.80;;;1.23;;
38513;SDS011;24282;48.400;10.808;2023-06-04T03:33:08;2.73;;;1.50;;
38513;SDS011;24282;48.400;10.808;2023-06-04T03:35:34;2.00;;;1.40;;
38513;SDS011;24282;48.400;10.808;2023-06-04T03:37:59;2.43;;;1.60;;
38513;SDS011;24282;48.400;10.808;2023-06-04T03:40:25;3.13;;;1.87;;
38513;SDS011;24282;48.400;10.808;2023-06-04T03:42:51;2.20;;;1.73;;
38513;SDS011;24282;48.400;10.808;2023-06-04T03:45:19;2.63;;;1.60;;
38513;SDS011;24282;48.400;10.808;2023-06-04T03:47:45;2.77;;;1.30;;
38513;SDS011;24282;48.400;10.808;2023-06-04T03:50:11;2.23;;;1.43;;
38513;SDS011;24282;48.400;10.808;2023-06-04T03:52:37;2.13;;;1.40;;
38513;SDS011;24282;48.400;10.808;2023-06-04T03:55:04;2.00;;;1.50;;
38513;SDS011;24282;48.400;10.808;2023-06-04T03:57:30;2.73;;;1.40;;
38513;SDS011;24282;48.400;10.808;2023-06-04T03:59:58;2.87;;;1.30;;
38513;SDS011;24282;48.400;10.808;2023-06-04T04:02:24;1.70;;;1.27;;
38513;SDS011;24282;48.400;10.808;2023-06-04T04:04:51;2.90;;;1.30;;
38513;SDS011;24282;48.400;10.808;2023-06-04T04:07:19;2.17;;;1.20;;
38513;SDS011;24282;48.400;10.808;2023-06-04T04:09:46;2.50;;;1.40;;
38513;SDS011;24282;48.400;10.808;2023-06-04T04:12:12;1.63;;;1.10;;
38513;SDS011;24282;48.400;10.808;2023-06-04T04:14:38;1.93;;;1.40;;
38513;SDS011;24282;48.400;10.808;2023-06-04T04:17:05;2.37;;;1.37;;
38513;SDS011;24282;48.400;10.808;2023-06-04T04:19:31;3.70;;;1.40;;
38513;SDS011;24282;48.400;10.808;2023-06-04T04:21:57;2.20;;;1.23;;
38513;SDS011;24282;48.400;10.808;2023-06-04T04:26:50;1.93;;;1.40;;
38513;SDS011;24282;48.400;10.808;2023-06-04T04:29:19;1.87;;;1.47;;
38513;SDS011;24282;48.400;10.808;2023-06-04T04:31:49;1.67;;;1.40;;
38513;SDS011;24282;48.400;10.808;2023-06-04T04:34:15;1.77;;;1.30;;
38513;SDS011;24282;48.400;10.808;2023-06-04T04:36:41;2.23;;;1.30;;
38513;SDS011;24282;48.400;10.808;2023-06-04T04:39:08;2.63;;;1.43;;
38513;SDS011;24282;48.400;10.808;2023-06-04T04:41:35;1.40;;;1.17;;
38513;SDS011;24282;48.400;10.808;2023-06-04T04:44:02;1.83;;;1.27;;
38513;SDS011;24282;48.400;10.808;2023-06-04T04:46:30;2.03;;;1.20;;
38513;SDS011;24282;48.400;10.808;2023-06-04T04:48:56;2.57;;;1.40;;
38513;SDS011;24282;48.400;10.808;2023-06-04T04:51:21;3.10;;;1.40;;
38513;SDS011;24282;48.400;10.808;2023-06-04T04:53:48;3.27;;;1.40;;
38513;SDS011;24282;48.400;10.808;2023-06-04T04:56:14;1.93;;;1.30;;
38513;SDS011;24282;48.400;10.808;2023-06-04T04:58:44;2.47;;;1.57;;
38513;SDS011;24282;48.400;10.808;2023-06-04T05:01:13;2.17;;;1.30;;
38513;SDS011;24282;48.400;10.808;2023-06-04T05:03:40;2.17;;;1.43;;
38513;SDS011;24282;48.400;10.808;2023-06-04T05:06:08;1.67;;;1.10;;
38513;SDS011;24282;48.400;10.808;2023-06-04T05:08:34;3.27;;;1.47;;
38513;SDS011;24282;48.400;10.808;2023-06-04T05:10:59;1.33;;;1.10;;
38513;SDS011;24282;48.400;10.808;2023-06-04T05:13:25;3.43;;;1.37;;
38513;SDS011;24282;48.400;10.808;2023-06-04T05:15:57;1.53;;;1.00;;
38513;SDS011;24282;48.400;10.808;2023-06-04T05:18:25;1.40;;;1.20;;
38513;SDS011;24282;48.400;10.808;2023-06-04T05:20:56;1.87;;;1.30;;
38513;SDS011;24282;48.400;10.808;2023-06-04T05:23:23;1.77;;;1.33;;
38513;SDS011;24282;48.400;10.808;2023-06-04T05:25:50;1.87;;;1.10;;
38513;SDS011;24282;48.400;10.808;2023-06-04T05:28:17;3.60;;;1.20;;
38513;SDS011;24282;48.400;10.808;2023-06-04T05:30:43;3.47;;;1.40;;
38513;SDS011;24282;48.400;10.808;2023-06-04T05:33:10;3.57;;;1.57;;
38513;SDS011;24282;48.400;10.808;2023-06-04T05:35:45;3.20;;;1.50;;
38513;SDS011;24282;48.400;10.808;2023-06-04T05:38:13;1.57;;;1.20;;
38513;SDS011;24282;48.400;10.808;2023-06-04T05:40:44;1.70;;;1.20;;
38513;SDS011;24282;48.400;10.808;2023-06-04T05:43:11;2.70;;;1.10;;
38513;SDS011;24282;48.400;10.808;2023-06-04T05:45:37;3.10;;;1.43;;
38513;SDS011;24282;48.400;10.808;2023-06-04T05:48:03;2.33;;;1.30;;
38513;SDS011;24282;48.400;10.808;2023-06-04T05:50:30;2.20;;;1.47;;
38513;SDS011;24282;48.400;10.808;2023-06-04T05:52:56;2.38;;;1.30;;
38513;SDS011;24282;48.400;10.808;2023-06-04T05:55:22;1.73;;;1.17;;
38513;SDS011;24282;48.400;10.808;2023-06-04T05:57:49;1.83;;;1.50;;
38513;SDS011;24282;48.400;10.808;2023-06-04T06:00:18;2.22;;;1.10;;
38513;SDS011;24282;48.400;10.808;2023-06-04T06:02:46;2.17;;;1.35;;
38513;SDS011;24282;48.400;10.808;2023-06-04T06:05:26;1.52;;;1.23;;
38513;SDS011;24282;48.400;10.808;2023-06-04T06:07:51;1.70;;;1.47;;
38513;SDS011;24282;48.400;10.808;2023-06-04T06:10:17;2.80;;;1.50;;
38513;SDS011;24282;48.400;10.808;2023-06-04T06:12:43;2.05;;;1.27;;
38513;SDS011;24282;48.400;10.808;2023-06-04T06:15:09;2.10;;;1.40;;
38513;SDS011;24282;48.400;10.808;2023-06-04T06:17:37;2.33;;;1.30;;
38513;SDS011;24282;48.400;10.808;2023-06-04T06:20:03;2.17;;;1.45;;
38513;SDS011;24282;48.400;10.808;2023-06-04T06:22:33;2.17;;;1.40;;
38513;SDS011;24282;48.400;10.808;2023-06-04T06:25:01;2.13;;;1.40;;
38513;SDS011;24282;48.400;10.808;2023-06-04T06:27:28;2.53;;;1.50;;
38513;SDS011;24282;48.400;10.808;2023-06-04T06:29:54;2.22;;;1.40;;
38513;SDS011;24282;48.400;10.808;2023-06-04T06:32:20;2.38;;;1.40;;
38513;SDS011;24282;48.400;10.808;2023-06-04T06:34:46;1.88;;;1.27;;
38513;SDS011;24282;48.400;10.808;2023-06-04T06:37:12;2.33;;;1.05;;
38513;SDS011;24282;48.400;10.808;2023-06-04T06:39:37;2.63;;;1.58;;
38513;SDS011;24282;48.400;10.808;2023-06-04T06:42:03;1.70;;;1.23;;
38513;SDS011;24282;48.400;10.808;2023-06-04T06:44:34;2.42;;;1.40;;
38513;SDS011;24282;48.400;10.808;2023-06-04T06:47:00;2.55;;;1.45;;
38513;SDS011;24282;48.400;10.808;2023-06-04T06:49:26;2.70;;;1.30;;
38513;SDS011;24282;48.400;10.808;2023-06-04T06:51:52;1.95;;;1.30;;
38513;SDS011;24282;48.400;10.808;2023-06-04T06:54:17;2.13;;;1.50;;
38513;SDS011;24282;48.400;10.808;2023-06-04T06:56:46;2.72;;;1.63;;
38513;SDS011;24282;48.400;10.808;2023-06-04T06:59:13;2.47;;;1.90;;
38513;SDS011;24282;48.400;10.808;2023-06-04T07:01:39;2.83;;;1.88;;
38513;SDS011;24282;48.400;10.808;2023-06-04T07:04:05;1.95;;;1.48;;
38513;SDS011;24282;48.400;10.808;2023-06-04T07:06:31;2.65;;;1.40;;
38513;SDS011;24282;48.400;10.808;2023-06-04T07:08:58;2.10;;;1.40;;
38513;SDS011;24282;48.400;10.808;2023-06-04T07:11:23;2.15;;;1.27;;
38513;SDS011;24282;48.400;10.808;2023-06-04T07:13:50;1.70;;;1.30;;
38513;SDS011;24282;48.400;10.808;2023-06-04T07:16:16;2.58;;;1.48;;
38513;SDS011;24282;48.400;10.808;2023-06-04T07:18:43;2.72;;;1.60;;
38513;SDS011;24282;48.400;10.808;2023-06-04T07:21:08;2.20;;;1.20;;
38513;SDS011;24282;48.400;10.808;2023-06-04T07:23:34;2.45;;;1.70;;
38513;SDS011;24282;48.400;10.808;2023-06-04T07:26:00;2.05;;;1.55;;
38513;SDS011;24282;48.400;10.808;2023-06-04T07:28:26;2.28;;;1.20;;
38513;SDS011;24282;48.400;10.808;2023-06-04T07:30:51;3.38;;;1.38;;
38513;SDS011;24282;48.400;10.808;2023-06-04T07:33:17;1.95;;;1.30;;
38513;SDS011;24282;48.400;10.808;2023-06-04T07:35:43;2.47;;;1.42;;
38513;SDS011;24282;48.400;10.808;2023-06-04T07:38:08;2.38;;;1.60;;
38513;SDS011;24282;48.400;10.808;2023-06-04T07:40:34;2.08;;;1.10;;
38513;SDS011;24282;48.400;10.808;2023-06-04T07:43:00;2.97;;;1.33;;
38513;SDS011;24282;48.400;10.808;2023-06-04T07:45:26;1.80;;;1.17;;
38513;SDS011;24282;48.400;10.808;2023-06-04T07:47:53;2.28;;;1.65;;
38513;SDS011;24282;48.400;10.808;2023-06-04T07:50:19;2.08;;;1.10;;
38513;SDS011;24282;48.400;10.808;2023-06-04T07:52:45;2.13;;;1.52;;
38513;SDS011;24282;48.400;10.808;2023-06-04T07:55:11;3.95;;;1.40;;
38513;SDS011;24282;48.400;10.808;2023-06-04T07:57:37;1.52;;;1.10;;
38513;SDS011;24282;48.400;10.808;2023-06-04T08:00:03;2.33;;;1.38;;
38513;SDS011;24282;48.400;10.808;2023-06-04T08:02:37;3.17;;;1.63;;
38513;SDS011;24282;48.400;10.808;2023-06-04T08:05:02;1.95;;;1.13;;
38513;SDS011;24282;48.400;10.808;2023-06-04T08:07:29;2.80;;;1.58;;
38513;SDS011;24282;48.400;10.808;2023-06-04T08:09:55;1.73;;;1.30;;
38513;SDS011;24282;48.400;10.808;2023-06-04T08:12:22;2.33;;;1.40;;
38513;SDS011;24282;48.400;10.808;2023-06-04T08:14:47;2.20;;;1.35;;
38513;SDS011;24282;48.400;10.808;2023-06-04T08:17:15;1.75;;;1.27;;
38513;SDS011;24282;48.400;10.808;2023-06-04T08:19:41;2.15;;;1.20;;
38513;SDS011;24282;48.400;10.808;2023-06-04T08:22:07;2.33;;;1.20;;
38513;SDS011;24282;48.400;10.808;2023-06-04T08:24:34;3.65;;;1.52;;
38513;SDS011;24282;48.400;10.808;2023-06-04T08:27:00;2.35;;;1.42;;
38513;SDS011;24282;48.400;10.808;2023-06-04T08:29:25;2.35;;;1.30;;
38513;SDS011;24282;48.400;10.808;2023-06-04T08:31:51;1.33;;;1.00;;
38513;SDS011;24282;48.400;10.808;2023-06-04T08:34:17;3.03;;;1.17;;
38513;SDS011;24282;48.400;10.808;2023-06-04T08:36:43;2.17;;;1.20;;
38513;SDS011;24282;48.400;10.808;2023-06-04T08:39:09;2.60;;;1.30;;
38513;SDS011;24282;48.400;10.808;2023-06-04T08:44:09;1.40;;;1.08;;
38513;SDS011;24282;48.400;10.808;2023-06-04T08:46:39;2.00;;;1.13;;
38513;SDS011;24282;48.400;10.808;2023-06-04T08:49:05;1.83;;;1.02;;
38513;SDS011;24282;48.400;10.808;2023-06-04T08:51:32;1.65;;;1.13;;
38513;SDS011;24282;48.400;10.808;2023-06-04T08:54:02;1.60;;;0.95;;
38513;SDS011;24282;48.400;10.808;2023-06-04T08:56:35;1.85;;;1.17;;
38513;SDS011;24282;48.400;10.808;2023-06-04T08:59:05;2.28;;;1.35;;
38513;SDS011;24282;48.400;10.808;2023-06-04T09:01:32;1.98;;;1.27;;
38513;SDS011;24282;48.400;10.808;2023-06-04T09:04:00;2.67;;;1.38;;
38513;SDS011;24282;48.400;10.808;2023-06-04T09:06:28;2.72;;;1.40;;
38513;SDS011;24282;48.400;10.808;2023-06-04T09:08:58;1.83;;;1.23;;
38513;SDS011;24282;48.400;10.808;2023-06-04T09:11:33;1.90;;;1.10;;
38513;SDS011;24282;48.400;10.808;2023-06-04T09:14:03;1.40;;;0.98;;
38513;SDS011;24282;48.400;10.808;2023-06-04T09:16:41;2.53;;;1.50;;
38513;SDS011;24282;48.400;10.808;2023-06-04T09:19:08;1.35;;;1.10;;
38513;SDS011;24282;48.400;10.808;2023-06-04T09:21:33;1.75;;;1.10;;
38513;SDS011;24282;48.400;10.808;2023-06-04T09:23:59;1.77;;;1.20;;
38513;SDS011;24282;48.400;10.808;2023-06-04T09:26:25;1.17;;;0.93;;
38513;SDS011;24282;48.400;10.808;2023-06-04T09:28:51;1.92;;;1.10;;
38513;SDS011;24282;48.400;10.808;2023-06-04T09:31:21;3.78;;;1.20;;
38513;SDS011;24282;48.400;10.808;2023-06-04T09:33:51;1.73;;;1.27;;
38513;SDS011;24282;48.400;10.808;2023-06-04T09:36:17;2.50;;;1.13;;
38513;SDS011;24282;48.400;10.808;2023-06-04T09:38:43;3.78;;;1.40;;
38513;SDS011;24282;48.400;10.808;2023-06-04T09:43:39;1.52;;;1.13;;
38513;SDS011;24282;48.400;10.808;2023-06-04T09:46:12;2.75;;;1.13;;
38513;SDS011;24282;48.400;10.808;2023-06-04T09:48:41;1.92;;;1.17;;
38513;SDS011;24282;48.400;10.808;2023-06-04T09:51:08;2.05;;;1.30;;
38513;SDS011;24282;48.400;10.808;2023-06-04T09:53:35;2.67;;;1.42;;
38513;SDS011;24282;48.400;10.808;2023-06-04T09:56:02;3.03;;;1.33;;
38513;SDS011;24282;48.400;10.808;2023-06-04T09:58:30;3.22;;;1.60;;
38513;SDS011;24282;48.400;10.808;2023-06-04T10:00:57;2.42;;;1.60;;
38513;SDS011;24282;48.400;10.808;2023-06-04T10:03:24;3.95;;;1.58;;
38513;SDS011;24282;48.400;10.808;2023-06-04T10:05:53;1.88;;;1.30;;
38513;SDS011;24282;48.400;10.808;2023-06-04T10:08:21;1.98;;;1.17;;
38513;SDS011;24282;48.400;10.808;2023-06-04T10:10:49;2.45;;;1.45;;
38513;SDS011;24282;48.400;10.808;2023-06-04T10:13:18;2.28;;;1.20;;
38513;SDS011;24282;48.400;10.808;2023-06-04T10:15:44;2.30;;;1.17;;
38513;SDS011;24282;48.400;10.808;2023-06-04T10:18:11;3.08;;;1.30;;
38513;SDS011;24282;48.400;10.808;2023-06-04T10:20:38;2.40;;;1.45;;
38513;SDS011;24282;48.400;10.808;2023-06-04T10:23:05;2.22;;;1.60;;
38513;SDS011;24282;48.400;10.808;2023-06-04T10:25:32;2.42;;;1.58;;
38513;SDS011;24282;48.400;10.808;2023-06-04T10:28:03;2.35;;;1.33;;
38513;SDS011;24282;48.400;10.808;2023-06-04T10:30:30;2.35;;;1.27;;
38513;SDS011;24282;48.400;10.808;2023-06-04T10:32:56;1.52;;;1.15;;
38513;SDS011;24282;48.400;10.808;2023-06-04T10:35:29;3.30;;;1.42;;
38513;SDS011;24282;48.400;10.808;2023-06-04T10:38:12;1.85;;;1.15;;
38513;SDS011;24282;48.400;10.808;2023-06-04T10:40:39;3.40;;;1.60;;
38513;SDS011;24282;48.400;10.808;2023-06-04T10:43:12;1.90;;;1.40;;
38513;SDS011;24282;48.400;10.808;2023-06-04T10:45:39;1.98;;;1.40;;
38513;SDS011;24282;48.400;10.808;2023-06-04T10:48:06;2.72;;;1.50;;
38513;SDS011;24282;48.400;10.808;2023-06-04T10:50:34;1.88;;;1.23;;
38513;SDS011;24282;48.400;10.808;2023-06-04T10:53:01;2.97;;;1.65;;
38513;SDS011;24282;48.400;10.808;2023-06-04T10:55:29;3.78;;;1.60;;
38513;SDS011;24282;48.400;10.808;2023-06-04T11:00:22;2.67;;;1.52;;
38513;SDS011;24282;48.400;10.808;2023-06-04T11:03:04;1.90;;;1.40;;
38513;SDS011;24282;48.400;10.808;2023-06-04T11:05:35;2.80;;;1.77;;
38513;SDS011;24282;48.400;10.808;2023-06-04T11:08:02;2.65;;;1.48;;
38513;SDS011;24282;48.400;10.808;2023-06-04T11:10:36;2.42;;;1.77;;
38513;SDS011;24282;48.400;10.808;2023-06-04T11:13:09;1.75;;;1.42;;
38513;SDS011;24282;48.400;10.808;2023-06-04T11:15:52;1.98;;;1.40;;
38513;SDS011;24282;48.400;10.808;2023-06-04T11:18:19;2.90;;;1.80;;
38513;SDS011;24282;48.400;10.808;2023-06-04T11:20:46;2.47;;;1.60;;
38513;SDS011;24282;48.400;10.808;2023-06-04T11:23:13;3.78;;;1.60;;
38513;SDS011;24282;48.400;10.808;2023-06-04T11:25:40;2.58;;;1.60;;
38513;SDS011;24282;48.400;10.808;2023-06-04T11:28:16;2.35;;;1.60;;
38513;SDS011;24282;48.400;10.808;2023-06-04T11:30:43;2.53;;;1.95;;
38513;SDS011;24282;48.400;10.808;2023-06-04T11:33:09;2.83;;;1.73;;
38513;SDS011;24282;48.400;10.808;2023-06-04T11:35:41;2.70;;;1.80;;
38513;SDS011;24282;48.400;10.808;2023-06-04T11:38:08;2.63;;;1.85;;
38513;SDS011;24282;48.400;10.808;2023-06-04T11:40:35;2.30;;;1.70;;
38513;SDS011;24282;48.400;10.808;2023-06-04T11:43:01;2.92;;;1.63;;
38513;SDS011;24282;48.400;10.808;2023-06-04T11:45:27;1.95;;;1.45;;
38513;SDS011;24282;48.400;10.808;2023-06-04T11:47:55;3.72;;;2.10;;
38513;SDS011;24282;48.400;10.808;2023-06-04T11:50:22;3.33;;;1.90;;
38513;SDS011;24282;48.400;10.808;2023-06-04T11:52:52;2.78;;;1.60;;
38513;SDS011;24282;48.400;10.808;2023-06-04T11:55:19;2.50;;;1.90;;
38513;SDS011;24282;48.400;10.808;2023-06-04T11:57:47;2.83;;;1.70;;
38513;SDS011;24282;48.400;10.808;2023-06-04T12:00:14;3.33;;;1.92;;
38513;SDS011;24282;48.400;10.808;2023-06-04T12:05:23;3.28;;;1.67;;
38513;SDS011;24282;48.400;10.808;2023-06-04T12:08:03;2.65;;;1.73;;
38513;SDS011;24282;48.400;10.808;2023-06-04T12:10:38;2.60;;;1.90;;
38513;SDS011;24282;48.400;10.808;2023-06-04T12:13:04;2.05;;;1.67;;
38513;SDS011;24282;48.400;10.808;2023-06-04T12:15:30;3.38;;;1.90;;
38513;SDS011;24282;48.400;10.808;2023-06-04T12:17:56;2.55;;;1.65;;
38513;SDS011;24282;48.400;10.808;2023-06-04T12:20:38;2.60;;;1.80;;
38513;SDS011;24282;48.400;10.808;2023-06-04T12:25:31;4.25;;;1.98;;
38513;SDS011;24282;48.400;10.808;2023-06-04T12:27:57;2.33;;;1.63;;
38513;SDS011;24282;48.400;10.808;2023-06-04T12:30:23;2.67;;;1.77;;
38513;SDS011;24282;48.400;10.808;2023-06-04T12:33:03;3.00;;;1.95;;
38513;SDS011;24282;48.400;10.808;2023-06-04T12:35:29;3.50;;;2.03;;
38513;SDS011;24282;48.400;10.808;2023-06-04T12:37:55;2.38;;;2.03;;
38513;SDS011;24282;48.400;10.808;2023-06-04T12:40:20;3.22;;;2.40;;
38513;SDS011;24282;48.400;10.808;2023-06-04T12:42:47;2.47;;;2.00;;
38513;SDS011;24282;48.400;10.808;2023-06-04T12:45:15;2.08;;;1.55;;
38513;SDS011;24282;48.400;10.808;2023-06-04T12:47:42;2.00;;;1.55;;
38513;SDS011;24282;48.400;10.808;2023-06-04T12:50:08;2.17;;;1.40;;
38513;SDS011;24282;48.400;10.808;2023-06-04T12:52:34;2.38;;;1.75;;
38513;SDS011;24282;48.400;10.808;2023-06-04T12:55:00;2.25;;;1.83;;
38513;SDS011;24282;48.400;10.808;2023-06-04T12:57:25;2.55;;;1.77;;
38513;SDS011;24282;48.400;10.808;2023-06-04T12:59:51;2.58;;;2.00;;
38513;SDS011;24282;48.400;10.808;2023-06-04T13:02:17;2.88;;;1.70;;
38513;SDS011;24282;48.400;10.808;2023-06-04T13:04:42;3.75;;;1.80;;
38513;SDS011;24282;48.400;10.808;2023-06-04T13:07:11;2.92;;;1.98;;
38513;SDS011;24282;48.400;10.808;2023-06-04T13:09:37;2.95;;;2.00;;
38513;SDS011;24282;48.400;10.808;2023-06-04T13:12:02;2.42;;;1.67;;
38513;SDS011;24282;48.400;10.808;2023-06-04T13:14:31;1.98;;;1.58;;
38513;SDS011;24282;48.400;10.808;2023-06-04T13:16:58;2.10;;;1.70;;
38513;SDS011;24282;48.400;10.808;2023-06-04T13:19:25;2.58;;;1.90;;
38513;SDS011;24282;48.400;10.808;2023-06-04T13:21:50;2.70;;;1.80;;
38513;SDS011;24282;48.400;10.808;2023-06-04T13:24:16;2.35;;;1.90;;
38513;SDS011;24282;48.400;10.808;2023-06-04T13:26:42;2.20;;;1.60;;
38513;SDS011;24282;48.400;10.808;2023-06-04T13:29:07;2.30;;;1.70;;
38513;SDS011;24282;48.400;10.808;2023-06-04T13:31:33;1.92;;;1.70;;
38513;SDS011;24282;48.400;10.808;2023-06-04T13:33:59;2.10;;;1.65;;
38513;SDS011;24282;48.400;10.808;2023-06-04T13:36:25;2.95;;;2.13;;
38513;SDS011;24282;48.400;10.808;2023-06-04T13:38:51;3.08;;;2.10;;
38513;SDS011;24282;48.400;10.808;2023-06-04T13:41:20;2.97;;;2.13;;
38513;SDS011;24282;48.400;10.808;2023-06-04T13:43:46;3.08;;;2.15;;
38513;SDS011;24282;48.400;10.808;2023-06-04T13:46:12;3.22;;;2.20;;
38513;SDS011;24282;48.400;10.808;2023-06-04T13:48:37;3.00;;;2.00;;
38513;SDS011;24282;48.400;10.808;2023-06-04T13:51:03;2.22;;;1.80;;
38513;SDS011;24282;48.400;10.808;2023-06-04T13:53:29;3.38;;;1.70;;
38513;SDS011;24282;48.400;10.808;2023-06-04T13:55:55;2.00;;;1.80;;
38513;SDS011;24282;48.400;10.808;2023-06-04T13:58:23;2.67;;;1.90;;
38513;SDS011;24282;48.400;10.808;2023-06-04T14:00:52;2.53;;;1.77;;
38513;SDS011;24282;48.400;10.808;2023-06-04T14:03:18;3.03;;;1.65;;
38513;SDS011;24282;48.400;10.808;2023-06-04T14:05:44;2.22;;;1.50;;
38513;SDS011;24282;48.400;10.808;2023-06-04T14:08:10;2.00;;;1.65;;
38513;SDS011;24282;48.400;10.808;2023-06-04T14:10:37;2.67;;;1.83;;
38513;SDS011;24282;48.400;10.808;2023-06-04T14:13:06;2.85;;;1.80;;
38513;SDS011;24282;48.400;10.808;2023-06-04T14:15:32;2.42;;;1.80;;
38513;SDS011;24282;48.400;10.808;2023-06-04T14:17:58;2.35;;;1.55;;
38513;SDS011;24282;48.400;10.808;2023-06-04T14:20:25;2.85;;;1.90;;
38513;SDS011;24282;48.400;10.808;2023-06-04T14:22:50;2.60;;;2.00;;
38513;SDS011;24282;48.400;10.808;2023-06-04T14:25:16;2.38;;;1.42;;
38513;SDS011;24282;48.400;10.808;2023-06-04T14:27:42;3.05;;;1.60;;
38513;SDS011;24282;48.400;10.808;2023-06-04T14:30:08;1.52;;;1.27;;
38513;SDS011;24282;48.400;10.808;2023-06-04T14:32:35;1.92;;;1.63;;
38513;SDS011;24282;48.400;10.808;2023-06-04T14:35:01;2.10;;;1.55;;
38513;SDS011;24282;48.400;10.808;2023-06-04T14:37:27;2.38;;;1.75;;
38513;SDS011;24282;48.400;10.808;2023-06-04T14:39:53;2.80;;;1.50;;
38513;SDS011;24282;48.400;10.808;2023-06-04T14:42:19;2.33;;;1.67;;
38513;SDS011;24282;48.400;10.808;2023-06-04T14:44:45;3.20;;;2.10;;
38513;SDS011;24282;48.400;10.808;2023-06-04T14:47:11;2.75;;;2.08;;
38513;SDS011;24282;48.400;10.808;2023-06-04T14:49:36;5.43;;;2.10;;
38513;SDS011;24282;48.400;10.808;2023-06-04T14:52:02;3.78;;;2.50;;
38513;SDS011;24282;48.400;10.808;2023-06-04T14:54:28;3.53;;;2.33;;
38513;SDS011;24282;48.400;10.808;2023-06-04T14:56:55;3.33;;;1.65;;